AAY2710 KLCK-KPIE
Flight info
| Callsign | AAY2710 |
|---|---|
| Flight time | N/A |
| Altitude | 37000 |
| Route | POBSE OHIOS NEALS/N0457F380 J85 SPA IRQ TEUFL BAAMF DADES2 |
| Aircraft | A339/H-SADE1E2E3GHIJ3J5M1P2RWXY/LB2D1 |
Departure
| Time | 2026-04-25 18:58 |
|---|---|
| Airport | Rickenbacker International Airport (KLCK) |
Arrival
| Time | N/A |
|---|---|
| Airport | St. Petersburg Clearwater International Airport (KPIE) |
| Time | Latitude | Longitude | Altitude | Speed | Heading |
|---|---|---|---|---|---|
| 2026-04-25 18:40 | 39.81626 | -82.93632 | 755 ft | 0 kts | 17° |
| 2026-04-25 18:49 | 39.81624 | -82.93633 | 755 ft | 2 kts | 17° |
| 2026-04-25 18:49 | 39.81606 | -82.93640 | 751 ft | 3 kts | 18° |
| 2026-04-25 18:49 | 39.81576 | -82.93666 | 750 ft | 4 kts | 80° |
| 2026-04-25 18:50 | 39.81573 | -82.93689 | 750 ft | 0 kts | 121° |
| 2026-04-25 18:50 | 39.81572 | -82.93689 | 750 ft | 0 kts | 124° |
| 2026-04-25 18:52 | 39.81563 | -82.93670 | 750 ft | 4 kts | 124° |
| 2026-04-25 18:52 | 39.81544 | -82.93634 | 751 ft | 5 kts | 124° |
| 2026-04-25 18:52 | 39.81540 | -82.93626 | 750 ft | 1 kts | 124° |
| 2026-04-25 18:52 | 39.81497 | -82.93586 | 751 ft | 11 kts | 148° |
| 2026-04-25 18:53 | 39.81414 | -82.93570 | 753 ft | 14 kts | 186° |
| 2026-04-25 18:53 | 39.81332 | -82.93626 | 750 ft | 13 kts | 219° |
| 2026-04-25 18:53 | 39.81265 | -82.93710 | 752 ft | 14 kts | 224° |
| 2026-04-25 18:53 | 39.81198 | -82.93796 | 756 ft | 14 kts | 226° |
| 2026-04-25 18:54 | 39.81056 | -82.93989 | 751 ft | 19 kts | 226° |
| 2026-04-25 18:54 | 39.80958 | -82.94118 | 750 ft | 20 kts | 225° |
| 2026-04-25 18:54 | 39.80860 | -82.94247 | 753 ft | 20 kts | 225° |
| 2026-04-25 18:55 | 39.80764 | -82.94374 | 751 ft | 20 kts | 225° |
| 2026-04-25 18:55 | 39.80654 | -82.94518 | 751 ft | 22 kts | 225° |
| 2026-04-25 18:55 | 39.80537 | -82.94609 | 751 ft | 19 kts | 169° |
| 2026-04-25 18:55 | 39.80429 | -82.94508 | 751 ft | 20 kts | 141° |
| 2026-04-25 18:56 | 39.80341 | -82.94395 | 751 ft | 18 kts | 136° |
| 2026-04-25 18:56 | 39.80245 | -82.94273 | 747 ft | 21 kts | 135° |
| 2026-04-25 18:56 | 39.80188 | -82.94134 | 747 ft | 10 kts | 91° |
| 2026-04-25 18:56 | 39.80210 | -82.94078 | 745 ft | 0 kts | 51° |
| 2026-04-25 18:57 | 39.80239 | -82.94033 | 746 ft | 31 kts | 49° |
| 2026-04-25 18:57 | 39.80588 | -82.93585 | 750 ft | 108 kts | 45° |
| 2026-04-25 18:57 | 39.81267 | -82.92682 | 749 ft | 167 kts | 45° |
| 2026-04-25 18:57 | 39.81842 | -82.91893 | 806 ft | 195 kts | 44° |
| 2026-04-25 18:58 | 39.83194 | -82.90017 | 1263 ft | 233 kts | 44° |
| 2026-04-25 18:58 | 39.85375 | -82.87133 | 3253 ft | 213 kts | 43° |
| 2026-04-25 18:58 | 39.86428 | -82.85655 | 3604 ft | 233 kts | 50° |
| 2026-04-25 18:59 | 39.88540 | -82.82128 | 4383 ft | 257 kts | 52° |
| 2026-04-25 18:59 | 39.90374 | -82.78059 | 5589 ft | 265 kts | 63° |
| 2026-04-25 19:00 | 39.91624 | -82.73466 | 6806 ft | 271 kts | 73° |
| 2026-04-25 19:00 | 39.91741 | -82.70986 | 7364 ft | 278 kts | 97° |
| 2026-04-25 19:01 | 39.89558 | -82.66833 | 8574 ft | 295 kts | 147° |
| 2026-04-25 19:01 | 39.87636 | -82.65956 | 9132 ft | 302 kts | 172° |
| 2026-04-25 19:01 | 39.85522 | -82.66042 | 9744 ft | 306 kts | 187° |
| 2026-04-25 19:01 | 39.83388 | -82.66372 | 10211 ft | 312 kts | 185° |
| 2026-04-25 19:02 | 39.78818 | -82.66403 | 10547 ft | 345 kts | 175° |
| 2026-04-25 19:02 | 39.76383 | -82.66108 | 10811 ft | 356 kts | 173° |
| 2026-04-25 19:02 | 39.73911 | -82.65734 | 11322 ft | 359 kts | 172° |
| 2026-04-25 19:03 | 39.70603 | -82.65215 | 12013 ft | 363 kts | 172° |
| 2026-04-25 19:03 | 39.66392 | -82.64568 | 12897 ft | 368 kts | 172° |
| 2026-04-25 19:03 | 39.63833 | -82.64181 | 13406 ft | 371 kts | 172° |
| 2026-04-25 19:04 | 39.58666 | -82.63412 | 14425 ft | 375 kts | 172° |
| 2026-04-25 19:04 | 39.56071 | -82.63026 | 14942 ft | 376 kts | 172° |
| 2026-04-25 19:05 | 39.50873 | -82.62254 | 15878 ft | 380 kts | 173° |
| 2026-04-25 19:05 | 39.45575 | -82.61504 | 16801 ft | 385 kts | 177° |
| 2026-04-25 19:05 | 39.42903 | -82.61552 | 17343 ft | 384 kts | 186° |
| 2026-04-25 19:06 | 39.40243 | -82.61850 | 17920 ft | 383 kts | 186° |
| 2026-04-25 19:06 | 39.34916 | -82.62409 | 18931 ft | 383 kts | 186° |
| 2026-04-25 19:06 | 39.32257 | -82.62679 | 19387 ft | 384 kts | 187° |
| 2026-04-25 19:07 | 39.26900 | -82.63219 | 20317 ft | 386 kts | 187° |
| 2026-04-25 19:07 | 39.24223 | -82.63487 | 20788 ft | 387 kts | 188° |
| 2026-04-25 19:08 | 39.18874 | -82.64024 | 21726 ft | 389 kts | 188° |
| 2026-04-25 19:08 | 39.16166 | -82.64296 | 22181 ft | 390 kts | 189° |
| 2026-04-25 19:09 | 39.07972 | -82.65122 | 23533 ft | 395 kts | 189° |
| 2026-04-25 19:09 | 39.06150 | -82.65305 | 23779 ft | 397 kts | 189° |
| 2026-04-25 19:09 | 38.99703 | -82.65955 | 24643 ft | 401 kts | 189° |
| 2026-04-25 19:10 | 38.96913 | -82.66236 | 25011 ft | 403 kts | 189° |
| 2026-04-25 19:10 | 38.94116 | -82.66518 | 25379 ft | 405 kts | 189° |
| 2026-04-25 19:10 | 38.91303 | -82.66801 | 25753 ft | 406 kts | 189° |
| 2026-04-25 19:10 | 38.88471 | -82.67084 | 26115 ft | 408 kts | 189° |
| 2026-04-25 19:11 | 38.85605 | -82.67118 | 26467 ft | 415 kts | 182° |
| 2026-04-25 19:11 | 38.82719 | -82.66668 | 26835 ft | 422 kts | 174° |
| 2026-04-25 19:11 | 38.79848 | -82.65723 | 27193 ft | 429 kts | 167° |
| 2026-04-25 19:11 | 38.77051 | -82.64283 | 27525 ft | 436 kts | 160° |
| 2026-04-25 19:12 | 38.74376 | -82.62398 | 27882 ft | 441 kts | 155° |
| 2026-04-25 19:12 | 38.71747 | -82.60449 | 28213 ft | 443 kts | 155° |
| 2026-04-25 19:12 | 38.69069 | -82.58491 | 28572 ft | 444 kts | 156° |
| 2026-04-25 19:12 | 38.66379 | -82.56540 | 28903 ft | 446 kts | 156° |
| 2026-04-25 19:13 | 38.63671 | -82.54583 | 29213 ft | 447 kts | 156° |
| 2026-04-25 19:13 | 38.60957 | -82.52625 | 29572 ft | 448 kts | 156° |
| 2026-04-25 19:13 | 38.58232 | -82.50661 | 29915 ft | 449 kts | 156° |
| 2026-04-25 19:13 | 38.55494 | -82.48688 | 30210 ft | 450 kts | 156° |
| 2026-04-25 19:14 | 38.52792 | -82.46742 | 30562 ft | 450 kts | 156° |
| 2026-04-25 19:14 | 38.51873 | -82.46081 | 30693 ft | 450 kts | 156° |
| 2026-04-25 19:14 | 38.47319 | -82.42807 | 31205 ft | 451 kts | 157° |
| 2026-04-25 19:14 | 38.44613 | -82.40863 | 31511 ft | 452 kts | 157° |
| 2026-04-25 19:15 | 38.41865 | -82.38892 | 31810 ft | 453 kts | 157° |
| 2026-04-25 19:15 | 38.39111 | -82.36920 | 32083 ft | 454 kts | 157° |
| 2026-04-25 19:15 | 38.36350 | -82.34943 | 32372 ft | 454 kts | 157° |
| 2026-04-25 19:15 | 38.33587 | -82.32965 | 32613 ft | 455 kts | 157° |
| 2026-04-25 19:16 | 38.30842 | -82.31003 | 32836 ft | 457 kts | 157° |
| 2026-04-25 19:16 | 38.28071 | -82.29023 | 33010 ft | 458 kts | 157° |
| 2026-04-25 19:16 | 38.25289 | -82.27039 | 33189 ft | 458 kts | 157° |
| 2026-04-25 19:16 | 38.22496 | -82.25048 | 33362 ft | 459 kts | 157° |
| 2026-04-25 19:17 | 38.19720 | -82.23070 | 33530 ft | 459 kts | 157° |
| 2026-04-25 19:17 | 38.16921 | -82.21080 | 33700 ft | 459 kts | 158° |
| 2026-04-25 19:17 | 38.14136 | -82.19101 | 33924 ft | 458 kts | 158° |
| 2026-04-25 19:17 | 38.11353 | -82.17124 | 34068 ft | 457 kts | 158° |
| 2026-04-25 19:18 | 38.08603 | -82.15172 | 34189 ft | 458 kts | 158° |
| 2026-04-25 19:18 | 38.05818 | -82.13196 | 34320 ft | 458 kts | 158° |
| 2026-04-25 19:18 | 38.03032 | -82.11223 | 34455 ft | 458 kts | 158° |
| 2026-04-25 19:18 | 38.00242 | -82.09248 | 34582 ft | 459 kts | 158° |
| 2026-04-25 19:19 | 37.97452 | -82.07274 | 34704 ft | 459 kts | 158° |
| 2026-04-25 19:19 | 37.94682 | -82.05316 | 34848 ft | 459 kts | 158° |
| 2026-04-25 19:19 | 37.91889 | -82.03345 | 34967 ft | 460 kts | 158° |
| 2026-04-25 19:20 | 37.86299 | -81.99400 | 35153 ft | 460 kts | 158° |
| 2026-04-25 19:20 | 37.83503 | -81.97432 | 35280 ft | 461 kts | 158° |
| 2026-04-25 19:20 | 37.80692 | -81.95457 | 35345 ft | 462 kts | 158° |
| 2026-04-25 19:20 | 37.77880 | -81.93483 | 35491 ft | 461 kts | 158° |
| 2026-04-25 19:21 | 37.75067 | -81.91510 | 35559 ft | 463 kts | 158° |
| 2026-04-25 19:21 | 37.69462 | -81.87578 | 35775 ft | 464 kts | 158° |
| 2026-04-25 19:21 | 37.66631 | -81.85593 | 35875 ft | 465 kts | 158° |
| 2026-04-25 19:22 | 37.60810 | -81.82207 | 36078 ft | 454 kts | 170° |
| 2026-04-25 19:22 | 37.54699 | -81.80925 | 36311 ft | 438 kts | 185° |
| 2026-04-25 19:23 | 37.51669 | -81.81024 | 36434 ft | 434 kts | 189° |
| 2026-04-25 19:23 | 37.45667 | -81.81366 | 36697 ft | 435 kts | 189° |
| 2026-04-25 19:23 | 37.42646 | -81.81515 | 36819 ft | 435 kts | 189° |
| 2026-04-25 19:24 | 37.36594 | -81.81804 | 36923 ft | 435 kts | 189° |
| 2026-04-25 19:25 | 37.24462 | -81.82384 | 36964 ft | 435 kts | 189° |
| 2026-04-25 19:25 | 37.18397 | -81.82679 | 36982 ft | 436 kts | 189° |
| 2026-04-25 19:26 | 37.12318 | -81.82968 | 36994 ft | 436 kts | 189° |
| 2026-04-25 19:26 | 37.06291 | -81.83256 | 36990 ft | 437 kts | 189° |
| 2026-04-25 19:27 | 37.02232 | -81.83451 | 36988 ft | 437 kts | 189° |
| 2026-04-25 19:27 | 36.94132 | -81.83837 | 36976 ft | 437 kts | 189° |
| 2026-04-25 19:28 | 36.88026 | -81.84129 | 36956 ft | 438 kts | 189° |
| 2026-04-25 19:28 | 36.81949 | -81.84416 | 36944 ft | 439 kts | 189° |
| 2026-04-25 19:29 | 36.75828 | -81.84705 | 36953 ft | 440 kts | 189° |
| 2026-04-25 19:29 | 36.69704 | -81.84995 | 36956 ft | 441 kts | 189° |
| 2026-04-25 19:30 | 36.63593 | -81.85284 | 36965 ft | 441 kts | 189° |
| 2026-04-25 19:30 | 36.57457 | -81.85572 | 36940 ft | 442 kts | 189° |
| 2026-04-25 19:31 | 36.51291 | -81.85864 | 36944 ft | 443 kts | 189° |
| 2026-04-25 19:31 | 36.46159 | -81.86104 | 36932 ft | 443 kts | 189° |
| 2026-04-25 19:32 | 36.38988 | -81.86441 | 36916 ft | 444 kts | 189° |
| 2026-04-25 19:32 | 36.34851 | -81.86635 | 36902 ft | 445 kts | 189° |
| 2026-04-25 19:33 | 36.27650 | -81.86970 | 36903 ft | 445 kts | 189° |
| 2026-04-25 19:33 | 36.21450 | -81.87261 | 36895 ft | 446 kts | 189° |
| 2026-04-25 19:34 | 36.15230 | -81.87554 | 36896 ft | 447 kts | 189° |
| 2026-04-25 19:34 | 36.09051 | -81.87842 | 36898 ft | 447 kts | 189° |
| 2026-04-25 19:35 | 36.02814 | -81.88133 | 36901 ft | 448 kts | 189° |
| 2026-04-25 19:35 | 35.96560 | -81.88423 | 36911 ft | 449 kts | 189° |
| 2026-04-25 19:36 | 35.90305 | -81.88714 | 36918 ft | 450 kts | 189° |
| 2026-04-25 19:36 | 35.84040 | -81.89004 | 36916 ft | 451 kts | 189° |
| 2026-04-25 19:37 | 35.77811 | -81.89291 | 36905 ft | 450 kts | 189° |
| 2026-04-25 19:37 | 35.71543 | -81.89580 | 36898 ft | 451 kts | 189° |
| 2026-04-25 19:38 | 35.65253 | -81.89872 | 36906 ft | 452 kts | 189° |
| 2026-04-25 19:38 | 35.58960 | -81.90161 | 36916 ft | 452 kts | 189° |
| 2026-04-25 19:39 | 35.52658 | -81.90452 | 36939 ft | 453 kts | 189° |
| 2026-04-25 19:39 | 35.46394 | -81.90739 | 36933 ft | 453 kts | 189° |
| 2026-04-25 19:40 | 35.40084 | -81.91027 | 36935 ft | 454 kts | 189° |
| 2026-04-25 19:40 | 35.33769 | -81.91317 | 36938 ft | 454 kts | 189° |
| 2026-04-25 19:41 | 35.27447 | -81.91605 | 36915 ft | 455 kts | 189° |
| 2026-04-25 19:41 | 35.22179 | -81.91845 | 36907 ft | 455 kts | 189° |
| 2026-04-25 19:42 | 35.14803 | -81.92181 | 36854 ft | 456 kts | 189° |
| 2026-04-25 19:42 | 35.08455 | -81.92470 | 36883 ft | 457 kts | 189° |
| 2026-04-25 19:43 | 35.02118 | -81.92897 | 36890 ft | 453 kts | 193° |
| 2026-04-25 19:43 | 34.95897 | -81.94029 | 36890 ft | 452 kts | 195° |
| 2026-04-25 19:44 | 34.89672 | -81.95161 | 36893 ft | 453 kts | 195° |
| 2026-04-25 19:44 | 34.83462 | -81.96276 | 36894 ft | 453 kts | 195° |
| 2026-04-25 19:45 | 34.77212 | -81.97395 | 36886 ft | 454 kts | 195° |
| 2026-04-25 19:45 | 34.70959 | -81.98512 | 36890 ft | 454 kts | 195° |
| 2026-04-25 19:46 | 34.64691 | -81.99631 | 36895 ft | 455 kts | 195° |
| 2026-04-25 19:46 | 34.58458 | -82.00743 | 36900 ft | 456 kts | 195° |
| 2026-04-25 19:47 | 34.52184 | -82.01861 | 36907 ft | 457 kts | 195° |
| 2026-04-25 19:47 | 34.45887 | -82.02979 | 36914 ft | 458 kts | 195° |
| 2026-04-25 19:48 | 34.39566 | -82.04099 | 36909 ft | 458 kts | 195° |
| 2026-04-25 19:48 | 34.33268 | -82.05216 | 36922 ft | 458 kts | 195° |
| 2026-04-25 19:49 | 34.28012 | -82.06146 | 36930 ft | 458 kts | 194° |
| 2026-04-25 19:49 | 34.20665 | -82.07445 | 36926 ft | 459 kts | 194° |
| 2026-04-25 19:50 | 34.11180 | -82.09116 | 36915 ft | 458 kts | 194° |
| 2026-04-25 19:51 | 34.04900 | -82.10221 | 36901 ft | 458 kts | 194° |
| 2026-04-25 19:51 | 33.98580 | -82.11332 | 36889 ft | 458 kts | 194° |
| 2026-04-25 19:52 | 33.92263 | -82.12441 | 36882 ft | 459 kts | 194° |
| 2026-04-25 19:52 | 33.85932 | -82.13550 | 36874 ft | 459 kts | 194° |
| 2026-04-25 19:53 | 33.79642 | -82.14650 | 36874 ft | 459 kts | 194° |
| 2026-04-25 19:53 | 33.73301 | -82.15741 | 36877 ft | 461 kts | 193° |
| 2026-04-25 19:54 | 33.66822 | -82.15955 | 36882 ft | 470 kts | 182° |
| 2026-04-25 19:54 | 33.60276 | -82.15382 | 36889 ft | 472 kts | 182° |
| 2026-04-25 19:55 | 33.53732 | -82.14849 | 36894 ft | 472 kts | 182° |
| 2026-04-25 19:55 | 33.47166 | -82.14327 | 36903 ft | 473 kts | 182° |
| 2026-04-25 19:56 | 33.40618 | -82.13807 | 36908 ft | 475 kts | 182° |
| 2026-04-25 19:56 | 33.34018 | -82.13283 | 36877 ft | 475 kts | 182° |
| 2026-04-25 19:57 | 33.27414 | -82.12758 | 36875 ft | 475 kts | 182° |
| 2026-04-25 19:57 | 33.20852 | -82.12239 | 36869 ft | 475 kts | 182° |
| 2026-04-25 19:58 | 33.14245 | -82.11717 | 36864 ft | 475 kts | 182° |
| 2026-04-25 19:58 | 33.07623 | -82.11195 | 36857 ft | 476 kts | 182° |
| 2026-04-25 19:59 | 33.01047 | -82.10678 | 36857 ft | 476 kts | 182° |
| 2026-04-25 19:59 | 32.94429 | -82.10159 | 36859 ft | 476 kts | 182° |
| 2026-04-25 20:00 | 32.87795 | -82.09638 | 36858 ft | 477 kts | 182° |
| 2026-04-25 20:00 | 32.81169 | -82.09119 | 36859 ft | 477 kts | 182° |
| 2026-04-25 20:01 | 32.71199 | -82.08338 | 36860 ft | 478 kts | 182° |
| 2026-04-25 20:01 | 32.64593 | -82.07823 | 36859 ft | 480 kts | 181° |
| 2026-04-25 20:02 | 32.57928 | -82.07303 | 36871 ft | 480 kts | 181° |
| 2026-04-25 20:02 | 32.51248 | -82.06783 | 36866 ft | 481 kts | 181° |
| 2026-04-25 20:03 | 32.44560 | -82.06263 | 36865 ft | 481 kts | 181° |
| 2026-04-25 20:03 | 32.37910 | -82.05746 | 36860 ft | 482 kts | 181° |
| 2026-04-25 20:04 | 32.31200 | -82.05226 | 36857 ft | 483 kts | 181° |
| 2026-04-25 20:04 | 32.24479 | -82.04706 | 36849 ft | 484 kts | 181° |
| 2026-04-25 20:05 | 32.17786 | -82.04188 | 36850 ft | 484 kts | 181° |
| 2026-04-25 20:05 | 32.11047 | -82.03668 | 36865 ft | 484 kts | 181° |
| 2026-04-25 20:06 | 32.04309 | -82.03149 | 36857 ft | 485 kts | 181° |
| 2026-04-25 20:06 | 31.97575 | -82.02631 | 36849 ft | 485 kts | 181° |
| 2026-04-25 20:07 | 31.90862 | -82.02124 | 36839 ft | 484 kts | 182° |
| 2026-04-25 20:07 | 31.84184 | -82.02484 | 36832 ft | 478 kts | 193° |
| 2026-04-25 20:08 | 31.77694 | -82.04049 | 36848 ft | 475 kts | 197° |
| 2026-04-25 20:08 | 31.71265 | -82.05702 | 36857 ft | 476 kts | 197° |
| 2026-04-25 20:09 | 31.64776 | -82.07342 | 36849 ft | 476 kts | 197° |
| 2026-04-25 20:09 | 31.58303 | -82.08973 | 36848 ft | 476 kts | 197° |
| 2026-04-25 20:10 | 31.55074 | -82.09784 | 37190 ft | 470 kts | 197° |
| 2026-04-25 20:10 | 31.51883 | -82.10583 | 37518 ft | 468 kts | 197° |
| 2026-04-25 20:10 | 31.48676 | -82.11392 | 37355 ft | 475 kts | 197° |
| 2026-04-25 20:10 | 31.45424 | -82.12214 | 37082 ft | 477 kts | 197° |
| 2026-04-25 20:11 | 31.42222 | -82.13019 | 36836 ft | 476 kts | 197° |
| 2026-04-25 20:11 | 31.38984 | -82.13831 | 36573 ft | 475 kts | 196° |
| 2026-04-25 20:11 | 31.35752 | -82.14642 | 36311 ft | 476 kts | 196° |
| 2026-04-25 20:11 | 31.32513 | -82.15454 | 36065 ft | 477 kts | 196° |
| 2026-04-25 20:12 | 31.29267 | -82.16267 | 35811 ft | 477 kts | 196° |
| 2026-04-25 20:12 | 31.26019 | -82.17079 | 35562 ft | 477 kts | 196° |
| 2026-04-25 20:12 | 31.22776 | -82.17890 | 35314 ft | 477 kts | 195° |
| 2026-04-25 20:12 | 31.21679 | -82.18164 | 35243 ft | 477 kts | 195° |
| 2026-04-25 20:13 | 31.16266 | -82.19518 | 34843 ft | 478 kts | 195° |
| 2026-04-25 20:13 | 31.13003 | -82.20332 | 34607 ft | 479 kts | 195° |
| 2026-04-25 20:13 | 31.09741 | -82.21145 | 34374 ft | 479 kts | 195° |
| 2026-04-25 20:13 | 31.06484 | -82.21957 | 34150 ft | 479 kts | 195° |
| 2026-04-25 20:14 | 31.03253 | -82.22761 | 33923 ft | 480 kts | 195° |
| 2026-04-25 20:14 | 30.99985 | -82.23573 | 33673 ft | 480 kts | 195° |
| 2026-04-25 20:14 | 30.96712 | -82.24386 | 33422 ft | 481 kts | 195° |
| 2026-04-25 20:14 | 30.93438 | -82.25199 | 33173 ft | 481 kts | 195° |
| 2026-04-25 20:15 | 30.90164 | -82.26013 | 32919 ft | 482 kts | 195° |
| 2026-04-25 20:15 | 30.86868 | -82.26832 | 32666 ft | 483 kts | 195° |
| 2026-04-25 20:15 | 30.83576 | -82.27648 | 32415 ft | 484 kts | 195° |
| 2026-04-25 20:15 | 30.80273 | -82.28465 | 32166 ft | 484 kts | 195° |
| 2026-04-25 20:16 | 30.76976 | -82.29281 | 31918 ft | 485 kts | 195° |
| 2026-04-25 20:16 | 30.73706 | -82.30091 | 31677 ft | 486 kts | 195° |
| 2026-04-25 20:16 | 30.70397 | -82.30909 | 31435 ft | 484 kts | 195° |
| 2026-04-25 20:16 | 30.67094 | -82.31695 | 31185 ft | 483 kts | 192° |
| 2026-04-25 20:17 | 30.63762 | -82.32176 | 30954 ft | 483 kts | 188° |
| 2026-04-25 20:17 | 30.60425 | -82.32576 | 30717 ft | 481 kts | 188° |
| 2026-04-25 20:17 | 30.57096 | -82.32984 | 30478 ft | 479 kts | 189° |
| 2026-04-25 20:17 | 30.53781 | -82.33395 | 30254 ft | 478 kts | 189° |
| 2026-04-25 20:18 | 30.50475 | -82.33808 | 30014 ft | 476 kts | 189° |
| 2026-04-25 20:18 | 30.47231 | -82.34214 | 29733 ft | 474 kts | 189° |
| 2026-04-25 20:18 | 30.43953 | -82.34623 | 29443 ft | 472 kts | 189° |
| 2026-04-25 20:18 | 30.40692 | -82.35029 | 29158 ft | 470 kts | 189° |
| 2026-04-25 20:19 | 30.37441 | -82.35434 | 28880 ft | 468 kts | 189° |
| 2026-04-25 20:19 | 30.34211 | -82.35835 | 28600 ft | 466 kts | 189° |
| 2026-04-25 20:19 | 30.30986 | -82.36236 | 28330 ft | 465 kts | 189° |
| 2026-04-25 20:19 | 30.27779 | -82.36635 | 28064 ft | 463 kts | 188° |
| 2026-04-25 20:20 | 30.24571 | -82.37034 | 27798 ft | 461 kts | 188° |
| 2026-04-25 20:20 | 30.22460 | -82.37296 | 27622 ft | 460 kts | 188° |
| 2026-04-25 20:20 | 30.18244 | -82.37805 | 27277 ft | 458 kts | 187° |
| 2026-04-25 20:20 | 30.16085 | -82.37907 | 27102 ft | 459 kts | 182° |
| 2026-04-25 20:21 | 30.12938 | -82.37756 | 26847 ft | 459 kts | 179° |
| 2026-04-25 20:21 | 30.09754 | -82.37556 | 26627 ft | 457 kts | 179° |
| 2026-04-25 20:21 | 30.06578 | -82.37368 | 26376 ft | 455 kts | 179° |
| 2026-04-25 20:21 | 30.02384 | -82.37130 | 26053 ft | 453 kts | 179° |
| 2026-04-25 20:22 | 30.00263 | -82.37012 | 25892 ft | 452 kts | 179° |
| 2026-04-25 20:22 | 29.98187 | -82.36897 | 25731 ft | 451 kts | 179° |
| 2026-04-25 20:22 | 29.93998 | -82.36663 | 25418 ft | 448 kts | 179° |
| 2026-04-25 20:22 | 29.90891 | -82.36490 | 25181 ft | 447 kts | 179° |
| 2026-04-25 20:23 | 29.87823 | -82.36318 | 24951 ft | 446 kts | 179° |
| 2026-04-25 20:23 | 29.84691 | -82.36143 | 24721 ft | 444 kts | 179° |
| 2026-04-25 20:23 | 29.81642 | -82.35976 | 24487 ft | 442 kts | 179° |
| 2026-04-25 20:23 | 29.78575 | -82.35807 | 24259 ft | 441 kts | 179° |
| 2026-04-25 20:24 | 29.75514 | -82.35639 | 24034 ft | 440 kts | 179° |
| 2026-04-25 20:24 | 29.72454 | -82.35469 | 23808 ft | 438 kts | 179° |
| 2026-04-25 20:24 | 29.69415 | -82.35300 | 23589 ft | 437 kts | 179° |
| 2026-04-25 20:24 | 29.66390 | -82.35132 | 23351 ft | 435 kts | 179° |
| 2026-04-25 20:25 | 29.63364 | -82.34965 | 23076 ft | 434 kts | 179° |
| 2026-04-25 20:25 | 29.60352 | -82.34797 | 22806 ft | 433 kts | 179° |
| 2026-04-25 20:25 | 29.57335 | -82.34632 | 22546 ft | 432 kts | 179° |
| 2026-04-25 20:25 | 29.54379 | -82.34467 | 22290 ft | 431 kts | 179° |
| 2026-04-25 20:26 | 29.51391 | -82.34301 | 22030 ft | 429 kts | 179° |
| 2026-04-25 20:26 | 29.48406 | -82.34137 | 21762 ft | 428 kts | 179° |
| 2026-04-25 20:26 | 29.45421 | -82.33973 | 21531 ft | 427 kts | 180° |
| 2026-04-25 20:26 | 29.42456 | -82.33809 | 21277 ft | 426 kts | 180° |
| 2026-04-25 20:27 | 29.39506 | -82.33606 | 21014 ft | 425 kts | 176° |
| 2026-04-25 20:27 | 29.36560 | -82.33247 | 20744 ft | 425 kts | 176° |
| 2026-04-25 20:27 | 29.33604 | -82.32887 | 20122 ft | 429 kts | 176° |
| 2026-04-25 20:27 | 29.30621 | -82.32529 | 19496 ft | 431 kts | 176° |
| 2026-04-25 20:28 | 29.27679 | -82.32177 | 18838 ft | 430 kts | 176° |
| 2026-04-25 20:28 | 29.24674 | -82.31820 | 18175 ft | 427 kts | 176° |
| 2026-04-25 20:28 | 29.21773 | -82.31473 | 17531 ft | 422 kts | 176° |
| 2026-04-25 20:28 | 29.18868 | -82.31125 | 16890 ft | 417 kts | 176° |
| 2026-04-25 20:29 | 29.15997 | -82.30782 | 16259 ft | 413 kts | 176° |
| 2026-04-25 20:29 | 29.13153 | -82.30444 | 15647 ft | 408 kts | 176° |
| 2026-04-25 20:29 | 29.10337 | -82.30107 | 14999 ft | 404 kts | 176° |
| 2026-04-25 20:29 | 29.07582 | -82.29779 | 14488 ft | 397 kts | 176° |
| 2026-04-25 20:30 | 29.04830 | -82.29452 | 13819 ft | 396 kts | 176° |
| 2026-04-25 20:30 | 29.02110 | -82.29130 | 13108 ft | 392 kts | 176° |
| 2026-04-25 20:30 | 28.99386 | -82.28810 | 12328 ft | 392 kts | 176° |
| 2026-04-25 20:30 | 28.96732 | -82.28498 | 11889 ft | 382 kts | 176° |
| 2026-04-25 20:31 | 28.94129 | -82.28189 | 11605 ft | 368 kts | 176° |
| 2026-04-25 20:31 | 28.91600 | -82.27889 | 11078 ft | 362 kts | 176° |
| 2026-04-25 20:31 | 28.89114 | -82.27592 | 10563 ft | 357 kts | 176° |
| 2026-04-25 20:31 | 28.86694 | -82.27304 | 10387 ft | 340 kts | 176° |
| 2026-04-25 20:32 | 28.84393 | -82.27027 | 10239 ft | 324 kts | 176° |
| 2026-04-25 20:32 | 28.82201 | -82.26767 | 10107 ft | 309 kts | 176° |
| 2026-04-25 20:32 | 28.80106 | -82.26521 | 9829 ft | 299 kts | 176° |
| 2026-04-25 20:32 | 28.78066 | -82.26278 | 9602 ft | 288 kts | 176° |
| 2026-04-25 20:33 | 28.76096 | -82.26046 | 9388 ft | 291 kts | 176° |
| 2026-04-25 20:33 | 28.74075 | -82.25811 | 9033 ft | 291 kts | 176° |
| 2026-04-25 20:33 | 28.72065 | -82.25748 | 8663 ft | 286 kts | 181° |
| 2026-04-25 20:33 | 28.70731 | -82.25738 | 8439 ft | 281 kts | 181° |
| 2026-04-25 20:34 | 28.68190 | -82.25719 | 7993 ft | 270 kts | 181° |
| 2026-04-25 20:34 | 28.66336 | -82.25699 | 7655 ft | 263 kts | 181° |
| 2026-04-25 20:34 | 28.64529 | -82.25675 | 7335 ft | 256 kts | 181° |
| 2026-04-25 20:34 | 28.62738 | -82.25648 | 7013 ft | 268 kts | 180° |
| 2026-04-25 20:35 | 28.60787 | -82.25613 | 6689 ft | 290 kts | 180° |
| 2026-04-25 20:35 | 28.58780 | -82.25566 | 6618 ft | 285 kts | 180° |
| 2026-04-25 20:35 | 28.56823 | -82.25522 | 6413 ft | 278 kts | 180° |
| 2026-04-25 20:35 | 28.54896 | -82.25480 | 5951 ft | 276 kts | 180° |
| 2026-04-25 20:36 | 28.53013 | -82.25443 | 5463 ft | 273 kts | 180° |
| 2026-04-25 20:36 | 28.51172 | -82.25407 | 5347 ft | 259 kts | 180° |
| 2026-04-25 20:36 | 28.49342 | -82.25317 | 5277 ft | 268 kts | 175° |
| 2026-04-25 20:36 | 28.47477 | -82.25049 | 5210 ft | 270 kts | 174° |
| 2026-04-25 20:37 | 28.45615 | -82.24772 | 5134 ft | 268 kts | 173° |
| 2026-04-25 20:37 | 28.43762 | -82.24496 | 5064 ft | 269 kts | 173° |
| 2026-04-25 20:37 | 28.41909 | -82.24225 | 5017 ft | 268 kts | 174° |
| 2026-04-25 20:37 | 28.39990 | -82.23949 | 4993 ft | 291 kts | 174° |
| 2026-04-25 20:38 | 28.37879 | -82.23645 | 4986 ft | 318 kts | 174° |
| 2026-04-25 20:38 | 28.35684 | -82.23327 | 4988 ft | 323 kts | 173° |
| 2026-04-25 20:38 | 28.33457 | -82.23008 | 4988 ft | 322 kts | 174° |
| 2026-04-25 20:38 | 28.31238 | -82.22692 | 4988 ft | 323 kts | 173° |
| 2026-04-25 20:39 | 28.29011 | -82.22404 | 4978 ft | 322 kts | 178° |
| 2026-04-25 20:39 | 28.26801 | -82.22786 | 4991 ft | 321 kts | 200° |
| 2026-04-25 20:39 | 28.24887 | -82.24063 | 4988 ft | 321 kts | 221° |
| 2026-04-25 20:39 | 28.23914 | -82.25319 | 4991 ft | 321 kts | 236° |
| 2026-04-25 20:40 | 28.22971 | -82.28379 | 4998 ft | 297 kts | 263° |
| 2026-04-25 20:40 | 28.22786 | -82.30620 | 4982 ft | 273 kts | 264° |
| 2026-04-25 20:40 | 28.22621 | -82.32677 | 4985 ft | 251 kts | 264° |
| 2026-04-25 20:40 | 28.22472 | -82.34576 | 4994 ft | 235 kts | 264° |
| 2026-04-25 20:41 | 28.22327 | -82.36464 | 4995 ft | 245 kts | 264° |
| 2026-04-25 20:41 | 28.22177 | -82.38392 | 4994 ft | 243 kts | 264° |
| 2026-04-25 20:41 | 28.22032 | -82.40270 | 4999 ft | 241 kts | 264° |
| 2026-04-25 20:41 | 28.21885 | -82.42178 | 5004 ft | 244 kts | 264° |
| 2026-04-25 20:42 | 28.21743 | -82.44103 | 4867 ft | 247 kts | 264° |
| 2026-04-25 20:42 | 28.21601 | -82.46049 | 4593 ft | 245 kts | 264° |
| 2026-04-25 20:42 | 28.21464 | -82.47957 | 4321 ft | 240 kts | 264° |
| 2026-04-25 20:42 | 28.21325 | -82.49827 | 4050 ft | 236 kts | 264° |
| 2026-04-25 20:43 | 28.21191 | -82.51668 | 3788 ft | 234 kts | 264° |
| 2026-04-25 20:43 | 28.21060 | -82.53514 | 3517 ft | 236 kts | 264° |
| 2026-04-25 20:43 | 28.20935 | -82.55369 | 3262 ft | 234 kts | 264° |
| 2026-04-25 20:43 | 28.20799 | -82.57179 | 3108 ft | 224 kts | 260° |
| 2026-04-25 20:44 | 28.20220 | -82.58784 | 3017 ft | 225 kts | 232° |
| 2026-04-25 20:44 | 28.18982 | -82.59896 | 3000 ft | 233 kts | 204° |
| 2026-04-25 20:44 | 28.17495 | -82.60613 | 3007 ft | 232 kts | 203° |
| 2026-04-25 20:44 | 28.16018 | -82.61333 | 3004 ft | 235 kts | 204° |
| 2026-04-25 20:45 | 28.14524 | -82.62061 | 3003 ft | 232 kts | 204° |
| 2026-04-25 20:45 | 28.13030 | -82.62786 | 3004 ft | 233 kts | 204° |
| 2026-04-25 20:45 | 28.11563 | -82.63490 | 3013 ft | 221 kts | 203° |
| 2026-04-25 20:45 | 28.10201 | -82.64143 | 2999 ft | 204 kts | 202° |
| 2026-04-25 20:46 | 28.08932 | -82.64751 | 3023 ft | 191 kts | 204° |
| 2026-04-25 20:46 | 28.07732 | -82.65336 | 3006 ft | 183 kts | 203° |
| 2026-04-25 20:46 | 28.06542 | -82.65930 | 3000 ft | 194 kts | 204° |
| 2026-04-25 20:46 | 28.05293 | -82.66541 | 3014 ft | 197 kts | 204° |
| 2026-04-25 20:47 | 28.04038 | -82.67156 | 3014 ft | 194 kts | 204° |
| 2026-04-25 20:47 | 28.02811 | -82.67759 | 3001 ft | 190 kts | 204° |
| 2026-04-25 20:47 | 28.01582 | -82.68358 | 2822 ft | 196 kts | 204° |
| 2026-04-25 20:47 | 28.00328 | -82.68983 | 2563 ft | 197 kts | 204° |
| 2026-04-25 20:48 | 27.99065 | -82.69609 | 2312 ft | 198 kts | 204° |
| 2026-04-25 20:48 | 27.97809 | -82.70225 | 2122 ft | 192 kts | 204° |
| 2026-04-25 20:48 | 27.96605 | -82.70810 | 2022 ft | 187 kts | 205° |
| 2026-04-25 20:48 | 27.95385 | -82.71399 | 2003 ft | 194 kts | 204° |
| 2026-04-25 20:49 | 27.94144 | -82.71991 | 2001 ft | 193 kts | 204° |
| 2026-04-25 20:49 | 27.92915 | -82.72570 | 2010 ft | 190 kts | 204° |
| 2026-04-25 20:49 | 27.91644 | -82.72873 | 2010 ft | 189 kts | 176° |
| 2026-04-25 20:49 | 27.90339 | -82.72513 | 2009 ft | 196 kts | 165° |